Pottersville, Missouri
Current Conditions -  °F | °C
As of 4:53 AM on Friday 28 Nov 2014 (Local Time) from KUNO Reporting Station
Clear Clear  
Wind Chill: 24°   Ceiling: Unl
Heat Index: 30°   Visibility: 10mi
Dew Point: 24°   Wind: 6mph
Humidity: 79%   Direction: 170°S
Pressure: 30.28"   Gusts: NA
Location:  36.7°N, 92.03°W
Report Text: KUNO 281053Z AUTO 17005KT 10SM CLR M01/M04 A3028 RMK AO2 SLP262 T10111044
Loading
Personal Weather Stations






























Interactive Weather Map New forecast layout! Learn more

10-Day Weather Forecast

Advertisements
Track Severe Weather on mobile